Independence — WDF3297 — position and weather

sailwx.info

Track history (hours):
 
Tides and Currents Weather Stations Pressure Air Temp Water Temp Dewpoint Dewpoint Depression Visibility Wind Speed Wind Dir Waves Ship Positions

Independence

Owner: American Cruise Lines Inc., Delmar, DE. More information available from US FCC via Universal Licensing System and Coast Guard Vessel Documentation Center.

Last reported at 2015-Apr-28 01:32 UTC. Time now 2015-Apr-28 02:08 UTC.
Position N 32°05' W 081°06'.

Length 65 m; draft 2.5 m.

Type: Passenger vessel. MMSI: 367438210.

Date/timePositionNaut miles runAvg speedWind from/ knotsBaromVisibWave heightAir tempDewpointWater temp
2015-Apr-28 01:32N 32°05' W 081°06'0 0.0
2015-Apr-28 00:32N 32°05' W 081°06'0 0.0
2015-Apr-27 23:32N 32°05' W 081°06'3 2.9
2015-Apr-27 22:33N 32°05' W 081°02'2 1.7
2015-Apr-27 21:33N 32°03' W 081°02'5 5.0
2015-Apr-27 20:33N 31°58' W 081°03'7 6.6
2015-Apr-27 19:33N 31°52' W 081°05'  
2015-Apr-22 14:15N 31°51' W 081°08'5 5.5
2015-Apr-22 13:25N 31°55' W 081°06'4 4.6
2015-Apr-22 12:30N 31°59' W 081°03'4 4.3
2015-Apr-22 11:29N 32°03' W 081°02'3 3.1
2015-Apr-22 10:33N 32°05' W 080°59'5 5.5
2015-Apr-22 09:33N 32°05' W 081°06'0 0.0
2015-Apr-22 08:28N 32°05' W 081°06'0 0.0
2015-Apr-22 07:30N 32°05' W 081°06'0 0.0
2015-Apr-22 06:25N 32°05' W 081°06'0 0.0
2015-Apr-22 05:31N 32°05' W 081°06'0 0.0
2015-Apr-22 04:31N 32°05' W 081°06'0 0.0
2015-Apr-22 03:25N 32°05' W 081°06'0 0.0
2015-Apr-22 02:28N 32°05' W 081°06'0 0.0
2015-Apr-22 01:31N 32°05' W 081°06'0 0.0
2015-Apr-22 00:31N 32°05' W 081°06'0 0.0
2015-Apr-21 23:27N 32°05' W 081°06'0 0.0
2015-Apr-21 22:22N 32°05' W 081°06'0 0.0
2015-Apr-21 21:25N 32°05' W 081°06'0 0.0
2015-Apr-21 20:31N 32°05' W 081°06'0 0.0
2015-Apr-21 19:33N 32°05' W 081°06'0 0.0
2015-Apr-21 18:31N 32°05' W 081°06'0 0.0
2015-Apr-21 17:31N 32°05' W 081°06'0 0.0
2015-Apr-21 16:27N 32°05' W 081°06'0 0.0
2015-Apr-21 15:04N 32°05' W 081°06'0 0.0
2015-Apr-21 14:27N 32°05' W 081°06'0 0.0
2015-Apr-21 13:31N 32°05' W 081°06'0 0.0
2015-Apr-21 12:30N 32°05' W 081°06'0 0.0
2015-Apr-21 11:33N 32°05' W 081°06'0 0.0
2015-Apr-21 10:21N 32°05' W 081°06'0 0.0
2015-Apr-21 09:33N 32°05' W 081°06'0 0.0
2015-Apr-21 08:30N 32°05' W 081°06'0 0.0
2015-Apr-21 07:33N 32°05' W 081°06'0 0.0
2015-Apr-21 06:33N 32°05' W 081°06'0 0.0
2015-Apr-21 05:33N 32°05' W 081°06'0 0.0
2015-Apr-21 04:33N 32°05' W 081°06'0 0.0
2015-Apr-21 03:30N 32°05' W 081°06'0 0.0
2015-Apr-21 02:33N 32°05' W 081°06'0 0.0
2015-Apr-21 01:33N 32°05' W 081°06'0 0.0
2015-Apr-21 00:31N 32°05' W 081°06'0 0.0
2015-Apr-20 23:33N 32°05' W 081°06'0 0.0
2015-Apr-20 22:33N 32°05' W 081°06'0 0.0
2015-Apr-20 21:33N 32°05' W 081°06'0 0.0
2015-Apr-20 20:33N 32°05' W 081°06'0 0.1
2015-Apr-20 19:33N 32°05' W 081°06'6 6.2
2015-Apr-20 18:33N 32°04' W 080°58'6 6.0
2015-Apr-20 17:33N 32°08' W 080°53'3 1.4
2015-Apr-20 15:19N 32°08' W 080°49'2 2.6
2015-Apr-20 14:31N 32°10' W 080°48'  
Track history (hours):
 
Tides and Currents Weather Stations Pressure Air Temp Water Temp Dewpoint Dewpoint Depression Visibility Wind Speed Wind Dir Waves Ship Positions

Independence

Owner: American Cruise Lines Inc., Delmar, DE. More information available from US FCC via Universal Licensing System and Coast Guard Vessel Documentation Center.

Last reported at 2015-Apr-28 01:32 UTC. Time now 2015-Apr-28 02:08 UTC.
Position N 32°05' W 081°06'.

Length 65 m; draft 2.5 m.

Type: Passenger vessel. MMSI: 367438210.

Date/timePositionNaut miles runAvg speedWind from/ knotsBaromVisibWave heightAir tempDewpointWater temp
2015-Apr-28 01:32N 32°05' W 081°06'0 0.0
2015-Apr-28 00:32N 32°05' W 081°06'0 0.0
2015-Apr-27 23:32N 32°05' W 081°06'3 2.9
2015-Apr-27 22:33N 32°05' W 081°02'2 1.7
2015-Apr-27 21:33N 32°03' W 081°02'5 5.0
2015-Apr-27 20:33N 31°58' W 081°03'7 6.6
2015-Apr-27 19:33N 31°52' W 081°05'  
2015-Apr-22 14:15N 31°51' W 081°08'5 5.5
2015-Apr-22 13:25N 31°55' W 081°06'4 4.6
2015-Apr-22 12:30N 31°59' W 081°03'4 4.3
2015-Apr-22 11:29N 32°03' W 081°02'3 3.1
2015-Apr-22 10:33N 32°05' W 080°59'5 5.5
2015-Apr-22 09:33N 32°05' W 081°06'0 0.0
2015-Apr-22 08:28N 32°05' W 081°06'0 0.0
2015-Apr-22 07:30N 32°05' W 081°06'0 0.0
2015-Apr-22 06:25N 32°05' W 081°06'0 0.0
2015-Apr-22 05:31N 32°05' W 081°06'0 0.0
2015-Apr-22 04:31N 32°05' W 081°06'0 0.0
2015-Apr-22 03:25N 32°05' W 081°06'0 0.0
2015-Apr-22 02:28N 32°05' W 081°06'0 0.0
2015-Apr-22 01:31N 32°05' W 081°06'0 0.0
2015-Apr-22 00:31N 32°05' W 081°06'0 0.0
2015-Apr-21 23:27N 32°05' W 081°06'0 0.0
2015-Apr-21 22:22N 32°05' W 081°06'0 0.0
2015-Apr-21 21:25N 32°05' W 081°06'0 0.0
2015-Apr-21 20:31N 32°05' W 081°06'0 0.0
2015-Apr-21 19:33N 32°05' W 081°06'0 0.0
2015-Apr-21 18:31N 32°05' W 081°06'0 0.0
2015-Apr-21 17:31N 32°05' W 081°06'0 0.0
2015-Apr-21 16:27N 32°05' W 081°06'0 0.0
2015-Apr-21 15:04N 32°05' W 081°06'0 0.0
2015-Apr-21 14:27N 32°05' W 081°06'0 0.0
2015-Apr-21 13:31N 32°05' W 081°06'0 0.0
2015-Apr-21 12:30N 32°05' W 081°06'0 0.0
2015-Apr-21 11:33N 32°05' W 081°06'0 0.0
2015-Apr-21 10:21N 32°05' W 081°06'0 0.0
2015-Apr-21 09:33N 32°05' W 081°06'0 0.0
2015-Apr-21 08:30N 32°05' W 081°06'0 0.0
2015-Apr-21 07:33N 32°05' W 081°06'0 0.0
2015-Apr-21 06:33N 32°05' W 081°06'0 0.0
2015-Apr-21 05:33N 32°05' W 081°06'0 0.0
2015-Apr-21 04:33N 32°05' W 081°06'0 0.0
2015-Apr-21 03:30N 32°05' W 081°06'0 0.0
2015-Apr-21 02:33N 32°05' W 081°06'0 0.0
2015-Apr-21 01:33N 32°05' W 081°06'0 0.0
2015-Apr-21 00:31N 32°05' W 081°06'0 0.0
2015-Apr-20 23:33N 32°05' W 081°06'0 0.0
2015-Apr-20 22:33N 32°05' W 081°06'0 0.0
2015-Apr-20 21:33N 32°05' W 081°06'0 0.0
2015-Apr-20 20:33N 32°05' W 081°06'0 0.1
2015-Apr-20 19:33N 32°05' W 081°06'6 6.2
2015-Apr-20 18:33N 32°04' W 080°58'6 6.0
2015-Apr-20 17:33N 32°08' W 080°53'3 1.4
2015-Apr-20 15:19N 32°08' W 080°49'2 2.6
2015-Apr-20 14:31N 32°10' W 080°48'  

Dump ship's entire track history